Time;durP1;ratioP1;P1;durP2;ratioP2;P2;SDS_P1;SDS_P2;PMS_P1;PMS_P2;Temp;Humidity;BMP_temperature;BMP_pressure;BME280_temperature;BME280_humidity;BME280_pressure;Samples;Min_cycle;Max_cycle;Signal;HPM_P1;HPM_P2
2023/07/08 00:01:23;;;;;;;;;;;;;;;20.66;53.00;101649.28;5013098;28;19930;-48
2023/07/08 00:03:49;;;;;;;;;;;;;;;20.60;53.89;101651.03;5015851;28;19921;-47
2023/07/08 00:06:21;;;;;;;;;;;;;;;20.58;52.96;101659.75;5017735;28;19965;-50
2023/07/08 00:08:47;;;;;;;;;;;;;;;20.52;53.31;101644.94;5019774;28;19935;-52
2023/07/08 00:11:13;;;;;;;;;;;;;;;20.49;52.70;101644.06;5021453;28;19921;-50
2023/07/08 00:13:38;;;;;;;;;;;;;;;20.46;53.61;101649.31;5021376;28;20374;-50
2023/07/08 00:16:03;;;;;;;;;;;;;;;20.42;53.89;101645.78;5023686;28;19951;-50
2023/07/08 00:18:29;;;;;;;;;;;;;;;20.39;53.55;101645.78;5021215;28;20161;-51
2023/07/08 00:20:54;;;;;;;;;;;;;;;20.34;54.61;101640.56;5023451;28;20319;-52
2023/07/08 00:23:22;;;;;;;;;;;;;;;20.31;54.14;101637.94;5026643;28;20901;-50
2023/07/08 00:25:47;;;;;;;;;;;;;;;20.29;53.82;101637.06;5015261;28;19925;-50
2023/07/08 00:28:17;;;;;;;;;;;;;;;20.28;53.25;101631.84;5021101;28;19920;-49
2023/07/08 00:30:42;;;;;;;;;;;;;;;20.24;54.63;101630.97;5020541;28;19987;-49
2023/07/08 00:33:07;;;;;;;;;;;;;;;20.21;54.05;101633.59;5018039;28;20375;-51
2023/07/08 00:35:37;;;;;;;;;;;;;;;20.17;54.48;101615.31;5018872;28;19925;-49
2023/07/08 00:38:12;;;;;;;;;;;;;;;20.15;53.96;101622.28;5021428;28;20366;-50
2023/07/08 00:40:37;;;;;;;;;;;;;;;20.12;54.12;101628.34;5022481;28;19952;-51
2023/07/08 00:43:04;;;;;;;;;;;;;;;20.09;54.69;101621.41;5020255;28;19952;-50
2023/07/08 00:45:41;;;;;;;;;;;;;;;20.07;53.97;101619.66;5025598;28;20031;-49
2023/07/08 00:48:28;;;;;;;;;;;;;;;20.06;54.88;101623.13;5024394;28;19917;-50
2023/07/08 00:50:53;;;;;;;;;;;;;;;20.01;54.70;101617.91;5023571;28;19971;-51
2023/07/08 00:53:26;;;;;;;;;;;;;;;19.99;55.60;101616.16;5020744;28;20015;-51
2023/07/08 00:55:56;;;;;;;;;;;;;;;19.95;54.88;101620.50;5022745;28;20379;-51
2023/07/08 00:58:23;;;;;;;;;;;;;;;19.93;54.73;101622.25;5026047;28;20435;-51
2023/07/08 01:00:49;;;;;;;;;;;;;;;19.91;54.66;101623.13;5014601;28;19917;-50
2023/07/08 01:03:15;;;;;;;;;;;;;;;19.88;55.74;101618.75;5021705;28;19925;-49
2023/07/08 01:05:41;;;;;;;;;;;;;;;19.87;54.84;101614.41;5020558;28;19932;-51
2023/07/08 01:08:06;;;;;;;;;;;;;;;19.85;54.44;101623.13;5015069;28;19925;-50
2023/07/08 01:10:46;;;;;;;;;;;;;;;19.81;54.58;101619.63;5017957;28;19929;-50
2023/07/08 01:13:12;;;;;;;;;;;;;;;19.78;56.19;101617.00;5015632;28;19925;-50
2023/07/08 01:15:40;;;;;;;;;;;;;;;19.77;56.03;101620.47;5023681;28;19979;-50
2023/07/08 01:18:07;;;;;;;;;;;;;;;19.73;55.87;101619.59;5021334;28;19921;-47
2023/07/08 01:20:32;;;;;;;;;;;;;;;19.75;55.66;101623.09;5016659;28;19918;-48
2023/07/08 01:22:57;;;;;;;;;;;;;;;19.68;55.21;101623.94;5013970;28;20426;-51
2023/07/08 01:25:23;;;;;;;;;;;;;;;19.63;56.17;101620.44;5014988;28;19928;-50
2023/07/08 01:27:51;;;;;;;;;;;;;;;19.61;55.35;101616.97;5022436;28;19975;-48
2023/07/08 01:30:17;;;;;;;;;;;;;;;19.62;56.18;101617.84;5027949;28;20371;-50
2023/07/08 01:32:48;;;;;;;;;;;;;;;19.53;55.69;101611.66;5026367;28;19918;-52
2023/07/08 01:35:13;;;;;;;;;;;;;;;19.52;55.83;101612.53;5018265;28;19921;-50
2023/07/08 01:37:40;;;;;;;;;;;;;;;19.50;56.78;101616.03;5020615;28;19979;-50
2023/07/08 01:40:15;;;;;;;;;;;;;;;19.48;57.07;101607.34;5015716;28;19964;-50
2023/07/08 01:42:40;;;;;;;;;;;;;;;19.44;57.40;101606.44;5018278;28;19925;-50
2023/07/08 01:45:12;;;;;;;;;;;;;;;19.42;56.91;101609.91;5017909;28;19926;-48
2023/07/08 01:47:38;;;;;;;;;;;;;;;19.41;56.14;101601.19;5018329;28;19939;-50
2023/07/08 01:50:03;;;;;;;;;;;;;;;19.39;56.70;101604.69;5021834;28;19929;-51
2023/07/08 01:52:28;;;;;;;;;;;;;;;19.37;56.64;101601.22;5023630;28;19925;-49
2023/07/08 01:54:57;;;;;;;;;;;;;;;19.34;57.08;101607.25;5014874;28;20405;-51
2023/07/08 01:57:22;;;;;;;;;;;;;;;19.34;56.59;101598.56;5022270;28;19921;-50
2023/07/08 01:59:47;;;;;;;;;;;;;;;19.30;57.70;101597.72;5016096;28;19971;-51
2023/07/08 02:02:13;;;;;;;;;;;;;;;19.26;57.37;101588.13;5017102;28;19971;-50
2023/07/08 02:04:38;;;;;;;;;;;;;;;19.26;56.99;101588.97;5014940;28;19964;-50
2023/07/08 02:07:04;;;;;;;;;;;;;;;19.19;58.38;101579.41;5018452;28;20421;-52
2023/07/08 02:09:30;;;;;;;;;;;;;;;19.19;58.01;101587.22;5020302;28;19983;-50
2023/07/08 02:11:55;;;;;;;;;;;;;;;19.16;57.40;101581.13;5023216;28;20295;-44
2023/07/08 02:14:21;;;;;;;;;;;;;;;19.17;57.76;101575.03;5023653;28;19925;-47
2023/07/08 02:16:46;;;;;;;;;;;;;;;19.15;57.89;101576.78;5025538;28;19977;-44
2023/07/08 02:19:11;;;;;;;;;;;;;;;19.13;57.69;101578.50;5023232;28;19920;-46
2023/07/08 02:21:37;;;;;;;;;;;;;;;19.08;58.16;101573.28;5025207;28;20035;-44
2023/07/08 02:24:02;;;;;;;;;;;;;;;19.04;59.66;101571.50;5022459;28;19964;-44
2023/07/08 02:26:28;;;;;;;;;;;;;;;19.02;58.53;101562.81;5022920;28;19948;-44
2023/07/08 02:28:53;;;;;;;;;;;;;;;18.99;58.58;101553.25;5023242;28;19936;-45
2023/07/08 02:31:18;;;;;;;;;;;;;;;18.96;59.01;101554.97;5021233;28;19925;-46
2023/07/08 02:33:43;;;;;;;;;;;;;;;18.92;58.55;101554.06;5023779;28;19925;-51
2023/07/08 02:36:09;;;;;;;;;;;;;;;18.93;58.90;101552.38;5024096;28;19921;-45
2023/07/08 02:38:34;;;;;;;;;;;;;;;18.87;58.57;101548.00;5026199;28;20035;-44
2023/07/08 02:40:59;;;;;;;;;;;;;;;18.87;59.19;101553.22;5011859;28;19976;-44
2023/07/08 02:43:25;;;;;;;;;;;;;;;18.84;59.27;101550.56;5016956;28;19968;-45
2023/07/08 02:45:50;;;;;;;;;;;;;;;18.83;60.40;101551.44;5011205;28;19921;-45
2023/07/08 02:48:17;;;;;;;;;;;;;;;18.82;59.35;101554.91;5025153;28;19925;-45
2023/07/08 02:50:42;;;;;;;;;;;;;;;18.78;59.25;101558.34;5022115;28;19917;-44
2023/07/08 02:53:07;;;;;;;;;;;;;;;18.72;59.42;101556.59;5023448;28;20000;-45
2023/07/08 02:55:32;;;;;;;;;;;;;;;18.68;59.84;101557.41;5022487;28;19929;-46
2023/07/08 02:57:58;;;;;;;;;;;;;;;18.67;59.62;101549.59;5020509;28;19921;-46
2023/07/08 03:00:23;;;;;;;;;;;;;;;18.64;60.52;101558.25;5020338;28;19999;-46
2023/07/08 03:02:48;;;;;;;;;;;;;;;18.59;60.65;101557.34;5018591;28;19925;-46
2023/07/08 03:05:13;;;;;;;;;;;;;;;18.57;60.09;101564.28;4999782;28;19929;-48
2023/07/08 03:07:39;;;;;;;;;;;;;;;18.56;60.90;101565.13;5020912;28;19929;-46
2023/07/08 03:10:05;;;;;;;;;;;;;;;18.53;60.44;101564.25;5017249;28;20399;-46
2023/07/08 03:12:30;;;;;;;;;;;;;;;18.50;61.22;101562.47;5015406;28;19925;-49
2023/07/08 03:14:55;;;;;;;;;;;;;;;18.49;60.52;101558.13;5014130;28;19969;-46
2023/07/08 03:17:20;;;;;;;;;;;;;;;18.48;61.00;101570.28;5014503;28;19925;-47
2023/07/08 03:19:46;;;;;;;;;;;;;;;18.44;60.98;101575.47;5019755;28;19925;-44
2023/07/08 03:22:11;;;;;;;;;;;;;;;18.41;60.86;101572.84;5016324;28;20462;-45
2023/07/08 03:24:36;;;;;;;;;;;;;;;18.38;61.29;101572.81;5012912;28;19971;-48
2023/07/08 03:27:04;;;;;;;;;;;;;;;18.36;61.75;101569.34;5011694;28;19961;-48
2023/07/08 03:29:30;;;;;;;;;;;;;;;18.35;63.00;101573.69;5014617;28;20377;-48
2023/07/08 03:31:55;;;;;;;;;;;;;;;18.35;60.84;101562.41;5013123;28;20430;-45
2023/07/08 03:34:21;;;;;;;;;;;;;;;18.36;61.76;101571.94;5003935;28;19945;-45
2023/07/08 03:36:50;;;;;;;;;;;;;;;18.35;62.01;101565.88;5011155;28;19922;-44
2023/07/08 03:39:20;;;;;;;;;;;;;;;18.34;61.36;101568.47;5016354;28;19921;-45
2023/07/08 03:41:45;;;;;;;;;;;;;;;18.34;61.14;101569.34;5007971;28;20394;-47
2023/07/08 03:44:11;;;;;;;;;;;;;;;18.33;61.15;101571.94;5013394;28;20485;-45
2023/07/08 03:46:36;;;;;;;;;;;;;;;18.30;62.25;101566.69;5021711;28;19922;-45
2023/07/08 03:49:02;;;;;;;;;;;;;;;18.29;62.11;101573.63;5015802;28;19933;-45
2023/07/08 03:51:32;;;;;;;;;;;;;;;18.29;61.88;101570.16;5017784;28;19929;-46
2023/07/08 03:53:57;;;;;;;;;;;;;;;18.27;62.26;101575.38;5014076;28;19924;-47
2023/07/08 03:56:23;;;;;;;;;;;;;;;18.27;62.62;101574.50;5012764;28;19954;-46
2023/07/08 03:58:48;;;;;;;;;;;;;;;18.22;64.21;101572.72;5016311;28;20006;-47
2023/07/08 04:01:17;;;;;;;;;;;;;;;18.21;62.17;101573.59;5018822;28;19953;-45
2023/07/08 04:03:42;;;;;;;;;;;;;;;18.21;62.92;101580.53;5014681;28;19920;-53
2023/07/08 04:06:08;;;;;;;;;;;;;;;18.20;63.68;101581.34;5016046;28;20347;-46
2023/07/08 04:08:33;;;;;;;;;;;;;;;18.20;64.31;101581.34;5015022;28;20379;-45
2023/07/08 04:10:58;;;;;;;;;;;;;;;18.20;63.16;101582.25;5021850;28;19929;-46
2023/07/08 04:13:23;;;;;;;;;;;;;;;18.21;63.18;101588.34;5023020;28;20039;-46
2023/07/08 04:15:54;;;;;;;;;;;;;;;18.23;63.27;101587.47;5012241;28;19953;-47
2023/07/08 04:18:20;;;;;;;;;;;;;;;18.25;64.16;101584.00;5017164;28;19925;-45
2023/07/08 04:20:45;;;;;;;;;;;;;;;18.26;62.49;101589.25;5025032;28;19936;-45
2023/07/08 04:23:10;;;;;;;;;;;;;;;18.30;62.82;101591.00;5025767;28;19928;-45
2023/07/08 04:25:35;;;;;;;;;;;;;;;18.34;62.80;101586.69;5017093;28;20371;-47
2023/07/08 04:28:00;;;;;;;;;;;;;;;18.39;63.04;101592.81;5018770;28;20299;-45
2023/07/08 04:30:26;;;;;;;;;;;;;;;18.57;63.35;101592.94;5021977;28;19925;-49
2023/07/08 04:32:51;;;;;;;;;;;;;;;19.01;62.16;101590.63;5024429;28;19925;-46
2023/07/08 04:35:17;;;;;;;;;;;;;;;19.56;61.78;101587.34;5022425;28;19933;-47
2023/07/08 04:37:42;;;;;;;;;;;;;;;20.08;60.40;101593.56;5023828;28;19921;-45
2023/07/08 04:40:14;;;;;;;;;;;;;;;20.59;59.53;101580.50;5023092;28;19957;-48
2023/07/08 04:42:39;;;;;;;;;;;;;;;21.00;57.59;101580.38;5024926;28;19918;-48
2023/07/08 04:45:05;;;;;;;;;;;;;;;21.44;56.90;101579.34;5006198;28;19966;-47
2023/07/08 04:47:33;;;;;;;;;;;;;;;21.85;56.47;101572.97;5019594;28;20012;-46
2023/07/08 04:49:58;;;;;;;;;;;;;;;22.22;55.11;101570.97;5026386;28;20302;-47
2023/07/08 04:52:23;;;;;;;;;;;;;;;22.51;54.61;101573.31;5027192;28;20011;-49
2023/07/08 04:54:48;;;;;;;;;;;;;;;22.71;54.74;101580.97;5014992;28;19945;-49
2023/07/08 04:57:16;;;;;;;;;;;;;;;22.90;54.29;101582.53;5030659;28;19917;-46
2023/07/08 04:59:41;;;;;;;;;;;;;;;23.07;53.59;101577.09;5028277;28;19924;-48
2023/07/08 05:02:07;;;;;;;;;;;;;;;23.22;53.10;101579.50;5026354;28;20368;-45
2023/07/08 05:04:32;;;;;;;;;;;;;;;23.49;52.79;101582.66;5022617;28;19926;-47
2023/07/08 05:06:58;;;;;;;;;;;;;;;23.58;51.91;101568.53;5022358;28;19960;-45
2023/07/08 05:09:25;;;;;;;;;;;;;;;23.56;52.82;101571.19;5018280;28;19921;-49
2023/07/08 05:11:51;;;;;;;;;;;;;;;23.55;51.65;101572.06;5019252;28;19932;-46
2023/07/08 05:14:16;;;;;;;;;;;;;;;23.67;51.30;101569.31;5026695;28;19921;-45
2023/07/08 05:16:41;;;;;;;;;;;;;;;23.64;51.82;101571.97;5025572;28;19925;-46
2023/07/08 05:19:07;;;;;;;;;;;;;;;23.22;52.06;101576.00;5024242;28;19929;-46
2023/07/08 05:21:34;;;;;;;;;;;;;;;22.99;52.66;101576.28;5013807;28;19925;-46
2023/07/08 05:24:03;;;;;;;;;;;;;;;22.81;52.62;101581.72;5018147;28;19921;-46
2023/07/08 05:26:29;;;;;;;;;;;;;;;22.98;52.86;101575.44;5020578;28;20334;-45
2023/07/08 05:28:55;;;;;;;;;;;;;;;23.16;52.86;101578.72;5020687;28;19921;-45
2023/07/08 05:31:20;;;;;;;;;;;;;;;23.06;52.14;101574.50;5017233;28;19927;-46
2023/07/08 05:33:45;;;;;;;;;;;;;;;23.15;52.86;101574.38;5018747;28;20039;-48
2023/07/08 05:36:11;;;;;;;;;;;;;;;23.43;51.51;101570.50;5004549;28;19932;-46
2023/07/08 05:38:36;;;;;;;;;;;;;;;23.75;51.52;101577.06;5019616;28;19921;-46
2023/07/08 05:41:01;;;;;;;;;;;;;;;24.03;50.93;101573.13;5020810;28;19976;-46
2023/07/08 05:43:26;;;;;;;;;;;;;;;24.21;50.83;101577.19;5018563;28;19975;-46
2023/07/08 05:45:52;;;;;;;;;;;;;;;24.42;49.98;101578.59;5014323;28;19935;-45
2023/07/08 05:48:17;;;;;;;;;;;;;;;24.50;49.08;101571.44;5018292;28;19925;-45
2023/07/08 05:50:42;;;;;;;;;;;;;;;24.57;48.77;101566.91;5014462;28;20388;-48
2023/07/08 05:53:11;;;;;;;;;;;;;;;24.53;48.37;101568.75;5023854;28;19925;-46
2023/07/08 05:55:37;;;;;;;;;;;;;;;24.27;50.28;101576.22;5024150;28;20419;-45
2023/07/08 05:58:02;;;;;;;;;;;;;;;24.21;50.08;101571.06;5025253;28;19945;-50
2023/07/08 06:00:27;;;;;;;;;;;;;;;24.27;49.71;101578.84;5025069;28;19929;-51
2023/07/08 06:02:53;;;;;;;;;;;;;;;24.43;49.34;101572.44;5020911;28;19932;-51
2023/07/08 06:05:18;;;;;;;;;;;;;;;24.34;49.21;101584.00;5004418;28;20287;-53
2023/07/08 06:07:43;;;;;;;;;;;;;;;24.19;49.27;101589.47;5017931;28;19913;-52
2023/07/08 06:10:09;;;;;;;;;;;;;;;24.04;50.65;101580.09;5017768;28;20307;-53
2023/07/08 06:12:34;;;;;;;;;;;;;;;24.20;49.57;101582.44;5015612;28;19936;-53
2023/07/08 06:14:59;;;;;;;;;;;;;;;24.42;49.29;101583.84;5020145;28;20012;-51
2023/07/08 06:17:25;;;;;;;;;;;;;;;24.56;49.47;101573.94;5019362;28;20000;-52
2023/07/08 06:19:50;;;;;;;;;;;;;;;24.80;48.89;101588.38;5008544;28;20063;-51
2023/07/08 06:22:15;;;;;;;;;;;;;;;25.07;48.39;101589.66;5012760;28;20016;-51
2023/07/08 06:24:41;;;;;;;;;;;;;;;25.17;47.64;101584.19;5015860;28;20068;-52
2023/07/08 06:27:06;;;;;;;;;;;;;;;25.20;47.36;101577.09;5021855;28;19960;-53
2023/07/08 06:29:32;;;;;;;;;;;;;;;25.04;47.29;101578.28;5026114;28;19921;-53
2023/07/08 06:31:58;;;;;;;;;;;;;;;25.06;48.55;101584.44;5016191;28;19922;-51
2023/07/08 06:34:23;;;;;;;;;;;;;;;25.25;48.31;101579.66;5015906;28;19926;-53
2023/07/08 06:36:49;;;;;;;;;;;;;;;25.27;47.21;101583.09;5018731;28;19925;-52
2023/07/08 06:39:14;;;;;;;;;;;;;;;25.28;46.61;101582.19;5015588;28;19922;-51
2023/07/08 06:41:40;;;;;;;;;;;;;;;25.42;47.30;101582.75;5013448;28;19917;-52
2023/07/08 06:44:05;;;;;;;;;;;;;;;25.60;45.90;101584.09;5014188;28;20372;-52
2023/07/08 06:46:30;;;;;;;;;;;;;;;25.50;46.22;101588.72;5017843;28;20303;-53
2023/07/08 06:48:56;;;;;;;;;;;;;;;25.48;44.89;101598.44;5011549;28;19918;-52
2023/07/08 06:51:21;;;;;;;;;;;;;;;25.32;45.30;101583.88;5018480;28;19925;-49
2023/07/08 06:53:46;;;;;;;;;;;;;;;25.26;45.97;101582.22;5016061;28;19960;-53
2023/07/08 06:56:12;;;;;;;;;;;;;;;25.28;45.57;101585.69;5018279;28;19921;-53
2023/07/08 06:58:37;;;;;;;;;;;;;;;25.33;46.43;101572.44;5018135;28;20214;-49
2023/07/08 07:01:02;;;;;;;;;;;;;;;25.55;45.66;101578.09;5020025;28;20391;-51
2023/07/08 07:03:28;;;;;;;;;;;;;;;25.66;44.85;101571.69;5017625;28;20357;-49
2023/07/08 07:05:53;;;;;;;;;;;;;;;25.88;45.15;101579.09;5015360;28;20367;-52
2023/07/08 07:08:18;;;;;;;;;;;;;;;25.95;45.04;101578.03;5014043;28;19929;-52
2023/07/08 07:10:43;;;;;;;;;;;;;;;26.03;44.91;101581.38;5012420;28;19929;-52
2023/07/08 07:13:09;;;;;;;;;;;;;;;26.11;44.87;101574.13;5015901;28;19925;-52
2023/07/08 07:15:34;;;;;;;;;;;;;;;26.37;44.13;101569.94;5018308;28;19921;-53
2023/07/08 07:17:59;;;;;;;;;;;;;;;26.50;44.16;101576.66;5016370;28;19917;-50
2023/07/08 07:20:25;;;;;;;;;;;;;;;26.62;43.03;101571.03;5020980;28;20013;-52
2023/07/08 07:22:51;;;;;;;;;;;;;;;26.71;42.85;101562.88;5014247;28;19922;-54
2023/07/08 07:25:17;;;;;;;;;;;;;;;26.68;43.05;101564.75;5023122;28;20437;-52
2023/07/08 07:27:42;;;;;;;;;;;;;;;26.79;42.47;101567.94;5015412;28;19928;-54
2023/07/08 07:30:12;;;;;;;;;;;;;;;26.72;42.89;101569.91;5014110;28;19921;-50
2023/07/08 07:32:38;;;;;;;;;;;;;;;26.71;42.44;101568.16;5012274;28;19922;-53
2023/07/08 07:35:03;;;;;;;;;;;;;;;26.85;43.42;101566.91;5012188;28;20452;-51
2023/07/08 07:37:28;;;;;;;;;;;;;;;26.96;43.24;101567.47;5011257;28;20368;-51
2023/07/08 07:39:53;;;;;;;;;;;;;;;27.09;42.69;101568.00;5013340;28;19944;-50
2023/07/08 07:42:19;;;;;;;;;;;;;;;27.05;42.63;101567.19;5014052;28;19929;-52
2023/07/08 07:44:44;;;;;;;;;;;;;;;27.14;43.04;101569.59;5012350;28;19929;-52
2023/07/08 07:47:10;;;;;;;;;;;;;;;27.30;42.40;101574.41;5011958;28;19944;-52
2023/07/08 07:49:35;;;;;;;;;;;;;;;27.37;42.28;101570.69;5012261;28;19979;-52
2023/07/08 07:52:01;;;;;;;;;;;;;;;27.39;43.03;101568.84;5010242;28;19978;-53
2023/07/08 07:54:26;;;;;;;;;;;;;;;27.59;43.17;101563.81;5007489;28;19925;-53
2023/07/08 07:56:52;;;;;;;;;;;;;;;27.79;42.87;101571.16;5010410;28;20004;-51
2023/07/08 07:59:17;;;;;;;;;;;;;;;27.90;42.20;101573.41;4996058;28;19923;-52
2023/07/08 08:01:42;;;;;;;;;;;;;;;27.90;43.06;101570.78;4995297;28;19925;-53
2023/07/08 08:04:09;;;;;;;;;;;;;;;27.93;43.11;101566.28;5008251;28;19937;-55
2023/07/08 08:06:34;;;;;;;;;;;;;;;28.00;42.95;101572.22;5014928;28;19917;-55
2023/07/08 08:08:59;;;;;;;;;;;;;;;28.05;42.67;101573.78;5019555;28;19941;-56
2023/07/08 08:11:25;;;;;;;;;;;;;;;27.96;42.80;101567.94;5010653;28;19983;-53
2023/07/08 08:13:51;;;;;;;;;;;;;;;27.86;42.97;101562.09;5015644;28;19932;-55
2023/07/08 08:16:16;;;;;;;;;;;;;;;27.89;42.94;101566.41;5011417;28;20056;-56
2023/07/08 08:18:41;;;;;;;;;;;;;;;27.97;42.76;101567.91;5009148;28;19932;-57
2023/07/08 08:21:07;;;;;;;;;;;;;;;28.18;43.27;101578.66;5012139;28;19937;-57
2023/07/08 08:23:32;;;;;;;;;;;;;;;28.47;42.75;101572.41;5017506;28;19939;-57
2023/07/08 08:25:57;;;;;;;;;;;;;;;28.71;41.20;101579.47;5016472;28;20616;-56
2023/07/08 08:28:23;;;;;;;;;;;;;;;28.56;42.33;101575.56;5020067;28;19922;-56
2023/07/08 08:30:49;;;;;;;;;;;;;;;28.59;41.18;101585.19;5026084;28;19929;-57
2023/07/08 08:33:14;;;;;;;;;;;;;;;28.60;42.07;101576.34;5022481;28;20783;-57
2023/07/08 08:35:39;;;;;;;;;;;;;;;28.76;41.74;101589.91;5022320;28;20299;-57
2023/07/08 08:38:05;;;;;;;;;;;;;;;28.74;41.58;101592.56;5018557;28;19987;-57
2023/07/08 08:40:31;;;;;;;;;;;;;;;28.76;41.60;101595.19;5021281;28;19925;-58
2023/07/08 08:43:16;;;;;;;;;;;;;;;28.65;40.95;101587.63;5027489;28;19921;-59
2023/07/08 08:45:59;;;;;;;;;;;;;;;28.54;42.52;101589.78;5019944;28;19963;-60
2023/07/08 08:48:26;;;;;;;;;;;;;;;28.82;41.03;101598.47;5017107;28;19917;-60
2023/07/08 08:51:21;;;;;;;;;;;;;;;28.92;41.47;101593.72;5018198;28;20001;-58
2023/07/08 08:53:46;;;;;;;;;;;;;;;29.16;41.67;101599.03;4998371;28;20324;-59
2023/07/08 08:56:12;;;;;;;;;;;;;;;29.19;39.89;101594.47;5023465;28;19980;-59
2023/07/08 08:58:43;;;;;;;;;;;;;;;29.09;41.23;101598.38;5020356;28;20010;-60
2023/07/08 09:01:12;;;;;;;;;;;;;;;29.26;41.05;101598.63;5022315;28;20286;-58
2023/07/08 09:03:38;;;;;;;;;;;;;;;29.47;41.04;101604.00;5021253;28;20007;-57
2023/07/08 09:06:12;;;;;;;;;;;;;;;29.79;39.53;101606.28;5024842;28;20336;-57
2023/07/08 09:08:37;;;;;;;;;;;;;;;29.83;40.08;101607.00;5024611;28;20302;-54
2023/07/08 09:11:03;;;;;;;;;;;;;;;29.81;40.07;101607.06;5031996;28;19921;-57
2023/07/08 09:13:31;;;;;;;;;;;;;;;29.80;39.25;101600.06;5031604;28;19925;-57
2023/07/08 09:16:02;;;;;;;;;;;;;;;29.75;39.44;101601.16;5030258;28;19925;-56
2023/07/08 09:18:33;;;;;;;;;;;;;;;29.65;40.11;101595.34;5012454;28;19921;-56
2023/07/08 09:21:02;;;;;;;;;;;;;;;29.73;40.27;101600.34;5027745;28;19968;-57
2023/07/08 09:23:32;;;;;;;;;;;;;;;29.83;39.96;101591.97;5029856;28;19938;-56
2023/07/08 09:26:07;;;;;;;;;;;;;;;29.93;39.28;101603.06;5033783;28;19925;-56
2023/07/08 09:28:42;;;;;;;;;;;;;;;29.72;40.08;101594.19;5020633;28;19921;-55
2023/07/08 09:31:09;;;;;;;;;;;;;;;29.71;40.72;101597.75;5026610;28;19918;-55
2023/07/08 09:33:38;;;;;;;;;;;;;;;29.83;40.96;101596.41;5026439;28;20004;-53
2023/07/08 09:36:15;;;;;;;;;;;;;;;29.92;39.52;101596.03;5025286;28;19936;-56
2023/07/08 09:38:40;;;;;;;;;;;;;;;30.07;40.36;101587.44;5023191;28;20380;-61
2023/07/08 09:41:05;;;;;;;;;;;;;;;30.24;39.21;101589.41;5023865;28;19928;-57
2023/07/08 09:43:37;;;;;;;;;;;;;;;30.36;39.53;101590.69;5018028;28;19945;-59
2023/07/08 09:46:03;;;;;;;;;;;;;;;30.38;39.41;101597.63;5020990;28;19967;-59
2023/07/08 09:48:29;;;;;;;;;;;;;;;30.38;38.80;101597.63;5020653;28;19929;-60
2023/07/08 09:50:56;;;;;;;;;;;;;;;30.36;39.83;101591.53;5006611;28;19922;-58
2023/07/08 09:53:21;;;;;;;;;;;;;;;30.48;38.24;101586.63;5007876;28;19945;-57
2023/07/08 09:55:47;;;;;;;;;;;;;;;30.56;38.07;101577.38;5021717;28;20015;-57
2023/07/08 09:58:21;;;;;;;;;;;;;;;30.59;39.16;101579.06;5021643;28;20000;-56
2023/07/08 10:00:51;;;;;;;;;;;;;;;30.63;37.28;101577.97;5024229;28;19960;-56
2023/07/08 10:03:35;;;;;;;;;;;;;;;30.63;38.58;101573.53;5019666;28;19925;-63
2023/07/08 10:06:03;;;;;;;;;;;;;;;30.63;37.93;101570.00;5022687;28;20021;-61
2023/07/08 10:08:34;;;;;;;;;;;;;;;30.71;37.99;101570.59;5016847;28;19921;-61
2023/07/08 10:11:13;;;;;;;;;;;;;;;30.78;37.90;101565.84;5017526;28;20072;-59
2023/07/08 10:13:41;;;;;;;;;;;;;;;30.72;37.02;101572.31;5005612;28;20340;-61
2023/07/08 10:16:12;;;;;;;;;;;;;;;30.76;37.71;101573.91;5011864;28;19968;-62
2023/07/08 10:18:37;;;;;;;;;;;;;;;30.78;37.79;101574.69;5018870;28;19924;-63
2023/07/08 10:21:08;;;;;;;;;;;;;;;30.90;37.31;101566.16;5017425;28;19929;-63
2023/07/08 10:23:45;;;;;;;;;;;;;;;30.96;35.99;101567.66;5017456;28;20411;-63
2023/07/08 10:26:20;;;;;;;;;;;;;;;31.03;35.74;101562.94;5016983;28;19932;-56
2023/07/08 10:28:58;;;;;;;;;;;;;;;31.11;35.29;101574.06;5019768;28;19921;-56
2023/07/08 10:31:37;;;;;;;;;;;;;;;31.20;36.72;101570.97;5023693;28;19925;-51
2023/07/08 10:34:02;;;;;;;;;;;;;;;31.21;38.63;101575.34;5025584;28;20387;-52
2023/07/08 10:36:44;;;;;;;;;;;;;;;31.21;37.86;101580.66;5019908;28;19963;-52
2023/07/08 10:39:13;;;;;;;;;;;;;;;31.23;36.84;101577.00;5019246;28;19917;-56
2023/07/08 10:41:56;;;;;;;;;;;;;;;31.24;35.64;101569.91;5019406;28;19913;-54
2023/07/08 10:44:28;;;;;;;;;;;;;;;31.28;35.12;101578.63;5017630;28;20027;-56
2023/07/08 10:47:12;;;;;;;;;;;;;;;31.37;36.16;101573.72;5016086;28;19918;-56
2023/07/08 10:49:37;;;;;;;;;;;;;;;31.38;35.03;101569.28;5008745;28;19925;-55
2023/07/08 10:52:21;;;;;;;;;;;;;;;31.50;34.30;101577.53;5015596;28;19913;-55
2023/07/08 10:54:58;;;;;;;;;;;;;;;31.59;36.96;101572.69;5018317;28;19936;-55
2023/07/08 10:57:39;;;;;;;;;;;;;;;31.30;34.66;101574.06;5017503;28;19967;-55
2023/07/08 11:00:22;;;;;;;;;;;;;;;31.26;35.35;101570.72;5019354;28;19996;-54
2023/07/08 11:02:57;;;;;;;;;;;;;;;31.39;36.72;101569.19;5021966;28;19917;-55
2023/07/08 11:05:22;;;;;;;;;;;;;;;31.50;35.53;101571.34;5020094;28;19936;-55
2023/07/08 11:07:52;;;;;;;;;;;;;;;31.52;36.21;101565.94;5021254;28;19917;-55
2023/07/08 11:10:20;;;;;;;;;;;;;;;31.64;36.03;101571.53;5015232;28;19963;-55
2023/07/08 11:12:47;;;;;;;;;;;;;;;31.83;35.76;101575.97;5002243;28;19913;-54
2023/07/08 11:15:12;;;;;;;;;;;;;;;31.99;35.84;101575.13;5013817;28;19929;-55
2023/07/08 11:17:53;;;;;;;;;;;;;;;32.07;35.14;101576.53;5017350;28;19925;-54
2023/07/08 11:20:25;;;;;;;;;;;;;;;32.12;34.92;101580.69;5013407;28;19917;-54
2023/07/08 11:23:05;;;;;;;;;;;;;;;32.12;33.60;101566.53;5015489;28;19921;-56
2023/07/08 11:25:31;;;;;;;;;;;;;;;32.08;35.59;101570.28;5018756;28;20020;-55
2023/07/08 11:27:59;;;;;;;;;;;;;;;31.95;35.43;101568.22;5017477;28;19932;-58
2023/07/08 11:30:27;;;;;;;;;;;;;;;31.77;38.65;101571.78;5014243;28;19929;-53
2023/07/08 11:32:59;;;;;;;;;;;;;;;31.65;37.87;101565.25;5015463;28;19913;-55
2023/07/08 11:35:44;;;;;;;;;;;;;;;31.60;35.94;101567.28;5021664;28;19927;-56
2023/07/08 11:38:12;;;;;;;;;;;;;;;31.71;33.29;101562.31;5020652;28;19917;-55
2023/07/08 11:40:50;;;;;;;;;;;;;;;31.92;35.78;101565.75;5011186;28;20004;-53
2023/07/08 11:43:16;;;;;;;;;;;;;;;32.18;35.79;101563.56;5011616;28;20055;-54
2023/07/08 11:45:43;;;;;;;;;;;;;;;32.40;35.43;101564.19;5021403;28;20361;-52
2023/07/08 11:48:30;;;;;;;;;;;;;;;32.54;34.32;101561.66;5012340;28;19965;-53
2023/07/08 11:50:57;;;;;;;;;;;;;;;32.62;36.45;101552.41;4998455;28;19925;-54
2023/07/08 11:53:28;;;;;;;;;;;;;;;32.59;36.08;101563.22;5019052;28;20025;-54
2023/07/08 11:55:57;;;;;;;;;;;;;;;32.39;32.28;101557.13;5023265;28;20007;-54
2023/07/08 11:58:27;;;;;;;;;;;;;;;32.49;34.51;101557.53;5018320;28;20059;-55
2023/07/08 12:01:17;;;;;;;;;;;;;;;32.74;34.22;101555.25;5015944;28;19955;-54
2023/07/08 12:03:50;;;;;;;;;;;;;;;32.77;30.59;101549.78;5013400;28;19970;-54
2023/07/08 12:06:28;;;;;;;;;;;;;;;32.96;30.43;101543.47;5013391;28;19921;-56
2023/07/08 12:08:54;;;;;;;;;;;;;;;33.14;33.09;101545.13;5018796;28;20028;-55
2023/07/08 12:11:24;;;;;;;;;;;;;;;33.21;29.77;101541.16;5013258;28;19921;-55
2023/07/08 12:13:49;;;;;;;;;;;;;;;33.29;29.99;101541.56;5015854;28;19971;-54
2023/07/08 12:16:15;;;;;;;;;;;;;;;33.44;30.25;101537.22;5013661;28;19933;-55
2023/07/08 12:18:45;;;;;;;;;;;;;;;33.78;28.81;101541.44;5013213;28;19932;-55
2023/07/08 12:21:12;;;;;;;;;;;;;;;33.98;29.65;101544.81;5019054;28;19917;-56
2023/07/08 12:23:43;;;;;;;;;;;;;;;33.96;31.73;101539.53;5019320;28;19927;-55
2023/07/08 12:26:08;;;;;;;;;;;;;;;33.99;30.98;101534.03;5018477;28;20443;-55
2023/07/08 12:28:36;;;;;;;;;;;;;;;34.07;30.71;101534.41;5003929;28;20011;-55
2023/07/08 12:31:01;;;;;;;;;;;;;;;34.10;30.34;101528.91;5021123;28;19917;-55
2023/07/08 12:33:32;;;;;;;;;;;;;;;34.28;28.28;101528.72;5015332;28;19935;-55
2023/07/08 12:35:59;;;;;;;;;;;;;;;34.36;29.54;101531.81;5017323;28;19928;-56
2023/07/08 12:38:28;;;;;;;;;;;;;;;34.52;29.63;101527.25;5017123;28;20021;-56